sensor_id;sensor_type;location;lat;lon;timestamp;temperature;humidity
67942;SHT31;54731;42.600;23.476;2023-08-06T00:00:08;19.54;74.94
67942;SHT31;54731;42.600;23.476;2023-08-06T00:02:34;19.55;74.06
67942;SHT31;54731;42.600;23.476;2023-08-06T00:04:59;19.59;74.15
67942;SHT31;54731;42.600;23.476;2023-08-06T00:07:25;19.57;74.68
67942;SHT31;54731;42.600;23.476;2023-08-06T00:09:50;19.51;73.07
67942;SHT31;54731;42.600;23.476;2023-08-06T00:12:15;19.54;73.52
67942;SHT31;54731;42.600;23.476;2023-08-06T00:14:41;19.57;74.44
67942;SHT31;54731;42.600;23.476;2023-08-06T00:17:06;19.59;73.56
67942;SHT31;54731;42.600;23.476;2023-08-06T00:19:32;19.58;74.46
67942;SHT31;54731;42.600;23.476;2023-08-06T00:21:57;19.59;74.99
67942;SHT31;54731;42.600;23.476;2023-08-06T00:24:22;19.64;74.81
67942;SHT31;54731;42.600;23.476;2023-08-06T00:26:48;19.62;74.54
67942;SHT31;54731;42.600;23.476;2023-08-06T00:29:13;19.54;74.84
67942;SHT31;54731;42.600;23.476;2023-08-06T00:31:38;19.43;75.59
67942;SHT31;54731;42.600;23.476;2023-08-06T00:34:04;19.44;76.30
67942;SHT31;54731;42.600;23.476;2023-08-06T00:36:29;19.48;76.61
67942;SHT31;54731;42.600;23.476;2023-08-06T00:38:54;19.47;76.97
67942;SHT31;54731;42.600;23.476;2023-08-06T00:41:19;19.46;77.21
67942;SHT31;54731;42.600;23.476;2023-08-06T00:43:45;19.48;77.28
67942;SHT31;54731;42.600;23.476;2023-08-06T00:46:10;19.51;77.52
67942;SHT31;54731;42.600;23.476;2023-08-06T00:48:35;19.53;77.30
67942;SHT31;54731;42.600;23.476;2023-08-06T00:51:01;19.46;77.49
67942;SHT31;54731;42.600;23.476;2023-08-06T00:53:27;19.43;77.33
67942;SHT31;54731;42.600;23.476;2023-08-06T00:55:52;19.41;77.67
67942;SHT31;54731;42.600;23.476;2023-08-06T00:58:18;19.44;77.42
67942;SHT31;54731;42.600;23.476;2023-08-06T01:00:43;19.46;77.55
67942;SHT31;54731;42.600;23.476;2023-08-06T01:03:09;19.43;77.54
67942;SHT31;54731;42.600;23.476;2023-08-06T01:05:34;19.39;77.53
67942;SHT31;54731;42.600;23.476;2023-08-06T01:10:50;19.37;78.03
67942;SHT31;54731;42.600;23.476;2023-08-06T01:16:03;19.32;77.63
67942;SHT31;54731;42.600;23.476;2023-08-06T01:18:28;19.27;77.97
67942;SHT31;54731;42.600;23.476;2023-08-06T01:20:54;19.30;78.02
67942;SHT31;54731;42.600;23.476;2023-08-06T01:23:19;19.26;78.12
67942;SHT31;54731;42.600;23.476;2023-08-06T01:28:48;19.26;78.09
67942;SHT31;54731;42.600;23.476;2023-08-06T01:31:26;19.16;78.05
67942;SHT31;54731;42.600;23.476;2023-08-06T01:33:53;19.20;77.93
67942;SHT31;54731;42.600;23.476;2023-08-06T01:36:19;19.23;78.00
67942;SHT31;54731;42.600;23.476;2023-08-06T01:38:46;19.26;77.87
67942;SHT31;54731;42.600;23.476;2023-08-06T01:41:11;19.18;77.60
67942;SHT31;54731;42.600;23.476;2023-08-06T01:43:36;19.21;77.92
67942;SHT31;54731;42.600;23.476;2023-08-06T01:46:02;19.21;77.79
67942;SHT31;54731;42.600;23.476;2023-08-06T01:48:27;19.10;77.75
67942;SHT31;54731;42.600;23.476;2023-08-06T01:50:52;19.14;78.02
67942;SHT31;54731;42.600;23.476;2023-08-06T01:53:18;19.18;77.44
67942;SHT31;54731;42.600;23.476;2023-08-06T01:55:48;19.21;76.98
67942;SHT31;54731;42.600;23.476;2023-08-06T01:58:13;19.26;76.70
67942;SHT31;54731;42.600;23.476;2023-08-06T02:00:38;19.30;76.97
67942;SHT31;54731;42.600;23.476;2023-08-06T02:03:03;19.34;76.41
67942;SHT31;54731;42.600;23.476;2023-08-06T02:05:29;19.26;76.57
67942;SHT31;54731;42.600;23.476;2023-08-06T02:07:54;19.26;76.56
67942;SHT31;54731;42.600;23.476;2023-08-06T02:10:19;19.27;76.88
67942;SHT31;54731;42.600;23.476;2023-08-06T02:12:45;19.28;76.95
67942;SHT31;54731;42.600;23.476;2023-08-06T02:15:10;19.30;77.13
67942;SHT31;54731;42.600;23.476;2023-08-06T02:17:35;19.30;76.84
67942;SHT31;54731;42.600;23.476;2023-08-06T02:20:00;19.27;76.65
67942;SHT31;54731;42.600;23.476;2023-08-06T02:22:26;19.13;76.84
67942;SHT31;54731;42.600;23.476;2023-08-06T02:24:51;19.11;77.00
67942;SHT31;54731;42.600;23.476;2023-08-06T02:27:16;18.97;77.34
67942;SHT31;54731;42.600;23.476;2023-08-06T02:29:42;18.89;77.55
67942;SHT31;54731;42.600;23.476;2023-08-06T02:32:07;18.86;77.54
67942;SHT31;54731;42.600;23.476;2023-08-06T02:34:33;18.82;78.09
67942;SHT31;54731;42.600;23.476;2023-08-06T02:36:58;18.84;77.97
67942;SHT31;54731;42.600;23.476;2023-08-06T02:39:23;18.72;78.35
67942;SHT31;54731;42.600;23.476;2023-08-06T02:41:48;18.70;78.48
67942;SHT31;54731;42.600;23.476;2023-08-06T02:44:14;18.69;78.57
67942;SHT31;54731;42.600;23.476;2023-08-06T02:46:39;18.66;78.66
67942;SHT31;54731;42.600;23.476;2023-08-06T02:49:04;18.69;78.72
67942;SHT31;54731;42.600;23.476;2023-08-06T02:51:31;18.64;78.97
67942;SHT31;54731;42.600;23.476;2023-08-06T02:53:56;18.62;79.21
67942;SHT31;54731;42.600;23.476;2023-08-06T02:56:21;18.62;79.23
67942;SHT31;54731;42.600;23.476;2023-08-06T02:58:47;18.63;79.36
67942;SHT31;54731;42.600;23.476;2023-08-06T03:01:12;18.67;78.88
67942;SHT31;54731;42.600;23.476;2023-08-06T03:03:37;18.53;79.59
67942;SHT31;54731;42.600;23.476;2023-08-06T03:06:03;18.57;79.73
67942;SHT31;54731;42.600;23.476;2023-08-06T03:08:28;18.60;79.91
67942;SHT31;54731;42.600;23.476;2023-08-06T03:10:54;18.59;80.54
67942;SHT31;54731;42.600;23.476;2023-08-06T03:13:19;18.62;80.84
67942;SHT31;54731;42.600;23.476;2023-08-06T03:15:58;18.66;80.81
67942;SHT31;54731;42.600;23.476;2023-08-06T03:18:24;18.63;81.34
67942;SHT31;54731;42.600;23.476;2023-08-06T03:20:50;18.63;82.48
67942;SHT31;54731;42.600;23.476;2023-08-06T03:23:15;18.67;82.58
67942;SHT31;54731;42.600;23.476;2023-08-06T03:25:40;18.63;82.28
67942;SHT31;54731;42.600;23.476;2023-08-06T03:28:06;18.60;82.25
67942;SHT31;54731;42.600;23.476;2023-08-06T03:30:31;18.56;82.43
67942;SHT31;54731;42.600;23.476;2023-08-06T03:32:56;18.62;82.65
67942;SHT31;54731;42.600;23.476;2023-08-06T03:35:22;18.60;82.52
67942;SHT31;54731;42.600;23.476;2023-08-06T03:37:47;18.59;82.17
67942;SHT31;54731;42.600;23.476;2023-08-06T03:40:12;18.60;81.77
67942;SHT31;54731;42.600;23.476;2023-08-06T03:42:37;18.67;82.40
67942;SHT31;54731;42.600;23.476;2023-08-06T03:45:03;18.62;81.97
67942;SHT31;54731;42.600;23.476;2023-08-06T03:47:28;18.59;82.27
67942;SHT31;54731;42.600;23.476;2023-08-06T05:09:23;18.55;84.46
67942;SHT31;54731;42.600;23.476;2023-08-06T05:11:49;18.66;84.57
67942;SHT31;54731;42.600;23.476;2023-08-06T05:14:14;18.80;84.35
67942;SHT31;54731;42.600;23.476;2023-08-06T05:16:39;18.86;84.32
67942;SHT31;54731;42.600;23.476;2023-08-06T05:19:05;18.93;84.31
67942;SHT31;54731;42.600;23.476;2023-08-06T05:21:30;18.96;84.30
67942;SHT31;54731;42.600;23.476;2023-08-06T05:23:55;19.00;84.10
67942;SHT31;54731;42.600;23.476;2023-08-06T05:26:21;19.07;84.09
67942;SHT31;54731;42.600;23.476;2023-08-06T05:28:46;19.02;84.32
67942;SHT31;54731;42.600;23.476;2023-08-06T05:31:11;19.03;84.38
67942;SHT31;54731;42.600;23.476;2023-08-06T05:33:37;18.99;84.44
67942;SHT31;54731;42.600;23.476;2023-08-06T05:36:02;18.92;83.82
67942;SHT31;54731;42.600;23.476;2023-08-06T05:38:29;18.73;84.27
67942;SHT31;54731;42.600;23.476;2023-08-06T05:40:54;18.83;84.29
67942;SHT31;54731;42.600;23.476;2023-08-06T05:43:20;18.86;83.31
67942;SHT31;54731;42.600;23.476;2023-08-06T05:45:45;18.87;83.35
67942;SHT31;54731;42.600;23.476;2023-08-06T05:48:11;18.84;83.64
67942;SHT31;54731;42.600;23.476;2023-08-06T05:50:36;18.97;83.44
67942;SHT31;54731;42.600;23.476;2023-08-06T05:53:01;19.06;83.47
67942;SHT31;54731;42.600;23.476;2023-08-06T05:55:26;19.11;83.33
67942;SHT31;54731;42.600;23.476;2023-08-06T05:57:52;19.10;82.94
67942;SHT31;54731;42.600;23.476;2023-08-06T06:00:17;19.17;82.95
67942;SHT31;54731;42.600;23.476;2023-08-06T06:02:42;19.20;82.93
67942;SHT31;54731;42.600;23.476;2023-08-06T06:05:08;19.21;82.50
67942;SHT31;54731;42.600;23.476;2023-08-06T06:07:33;19.26;82.67
67942;SHT31;54731;42.600;23.476;2023-08-06T06:09:58;19.27;82.76
67942;SHT31;54731;42.600;23.476;2023-08-06T06:12:24;19.26;83.01
67942;SHT31;54731;42.600;23.476;2023-08-06T06:14:49;19.26;82.74
67942;SHT31;54731;42.600;23.476;2023-08-06T06:17:14;19.17;82.38
67942;SHT31;54731;42.600;23.476;2023-08-06T06:19:40;19.27;82.32
67942;SHT31;54731;42.600;23.476;2023-08-06T06:22:05;19.28;82.76
67942;SHT31;54731;42.600;23.476;2023-08-06T06:24:31;19.31;82.83
67942;SHT31;54731;42.600;23.476;2023-08-06T06:26:56;19.38;82.32
67942;SHT31;54731;42.600;23.476;2023-08-06T06:29:21;19.39;82.14
67942;SHT31;54731;42.600;23.476;2023-08-06T06:31:46;19.39;82.63
67942;SHT31;54731;42.600;23.476;2023-08-06T06:34:12;19.39;82.91
67942;SHT31;54731;42.600;23.476;2023-08-06T06:36:37;19.43;82.84
67942;SHT31;54731;42.600;23.476;2023-08-06T06:39:02;19.47;82.88
67942;SHT31;54731;42.600;23.476;2023-08-06T06:41:28;19.50;82.76
67942;SHT31;54731;42.600;23.476;2023-08-06T06:43:53;19.50;82.78
67942;SHT31;54731;42.600;23.476;2023-08-06T06:46:18;19.44;82.90
67942;SHT31;54731;42.600;23.476;2023-08-06T06:48:44;19.37;82.48
67942;SHT31;54731;42.600;23.476;2023-08-06T06:51:09;19.43;82.55
67942;SHT31;54731;42.600;23.476;2023-08-06T06:53:34;19.39;82.71
67942;SHT31;54731;42.600;23.476;2023-08-06T06:56:04;19.43;82.57
67942;SHT31;54731;42.600;23.476;2023-08-06T06:58:29;19.35;82.63
67942;SHT31;54731;42.600;23.476;2023-08-06T07:00:55;19.37;82.80
67942;SHT31;54731;42.600;23.476;2023-08-06T07:03:20;19.38;82.91
67942;SHT31;54731;42.600;23.476;2023-08-06T07:05:46;19.34;83.59
67942;SHT31;54731;42.600;23.476;2023-08-06T07:08:11;19.46;83.04
67942;SHT31;54731;42.600;23.476;2023-08-06T07:10:37;19.44;82.14
67942;SHT31;54731;42.600;23.476;2023-08-06T07:13:02;19.47;82.01
67942;SHT31;54731;42.600;23.476;2023-08-06T07:15:27;19.48;81.64
67942;SHT31;54731;42.600;23.476;2023-08-06T07:17:53;19.53;81.87
67942;SHT31;54731;42.600;23.476;2023-08-06T07:20:18;19.59;81.35
67942;SHT31;54731;42.600;23.476;2023-08-06T07:22:44;19.64;80.58
67942;SHT31;54731;42.600;23.476;2023-08-06T07:25:09;19.65;80.33
67942;SHT31;54731;42.600;23.476;2023-08-06T07:27:35;19.72;80.87
67942;SHT31;54731;42.600;23.476;2023-08-06T07:30:00;19.77;80.48
67942;SHT31;54731;42.600;23.476;2023-08-06T07:32:26;19.83;80.24
67942;SHT31;54731;42.600;23.476;2023-08-06T07:34:51;19.99;80.48
67942;SHT31;54731;42.600;23.476;2023-08-06T07:37:16;20.08;79.45
67942;SHT31;54731;42.600;23.476;2023-08-06T07:39:42;20.10;79.02
67942;SHT31;54731;42.600;23.476;2023-08-06T07:42:07;20.23;78.36
67942;SHT31;54731;42.600;23.476;2023-08-06T07:44:32;20.30;78.62
67942;SHT31;54731;42.600;23.476;2023-08-06T07:46:58;20.46;78.06
67942;SHT31;54731;42.600;23.476;2023-08-06T07:49:23;20.50;77.69
67942;SHT31;54731;42.600;23.476;2023-08-06T07:51:49;20.63;77.92
67942;SHT31;54731;42.600;23.476;2023-08-06T07:54:14;20.70;76.22
67942;SHT31;54731;42.600;23.476;2023-08-06T07:56:39;20.83;76.59
67942;SHT31;54731;42.600;23.476;2023-08-06T07:59:04;20.91;75.63
67942;SHT31;54731;42.600;23.476;2023-08-06T08:01:30;21.01;75.40
67942;SHT31;54731;42.600;23.476;2023-08-06T08:03:55;21.07;74.93
67942;SHT31;54731;42.600;23.476;2023-08-06T08:06:20;21.12;75.65
67942;SHT31;54731;42.600;23.476;2023-08-06T08:08:46;21.11;72.98
67942;SHT31;54731;42.600;23.476;2023-08-06T08:11:11;21.11;71.69
67942;SHT31;54731;42.600;23.476;2023-08-06T08:13:36;21.24;70.99
67942;SHT31;54731;42.600;23.476;2023-08-06T08:16:02;21.34;70.55
67942;SHT31;54731;42.600;23.476;2023-08-06T08:18:27;21.32;69.14
67942;SHT31;54731;42.600;23.476;2023-08-06T08:20:53;21.39;70.83
67942;SHT31;54731;42.600;23.476;2023-08-06T08:23:18;21.27;67.03
67942;SHT31;54731;42.600;23.476;2023-08-06T08:25:43;21.24;67.60
67942;SHT31;54731;42.600;23.476;2023-08-06T08:28:09;21.27;67.02
67942;SHT31;54731;42.600;23.476;2023-08-06T08:30:34;21.18;69.17
67942;SHT31;54731;42.600;23.476;2023-08-06T08:33:00;21.10;68.26
67942;SHT31;54731;42.600;23.476;2023-08-06T08:35:25;21.24;67.68
67942;SHT31;54731;42.600;23.476;2023-08-06T08:37:50;21.38;66.27
67942;SHT31;54731;42.600;23.476;2023-08-06T08:40:16;21.34;65.89
67942;SHT31;54731;42.600;23.476;2023-08-06T08:42:42;21.44;67.18
67942;SHT31;54731;42.600;23.476;2023-08-06T08:45:12;21.48;64.50
67942;SHT31;54731;42.600;23.476;2023-08-06T08:47:39;21.48;64.52
67942;SHT31;54731;42.600;23.476;2023-08-06T08:50:06;21.58;66.51
67942;SHT31;54731;42.600;23.476;2023-08-06T08:52:32;21.66;66.86
67942;SHT31;54731;42.600;23.476;2023-08-06T08:54:59;21.59;67.29
67942;SHT31;54731;42.600;23.476;2023-08-06T08:57:26;21.65;68.57
67942;SHT31;54731;42.600;23.476;2023-08-06T08:59:51;21.74;67.02
67942;SHT31;54731;42.600;23.476;2023-08-06T09:02:17;21.83;65.79
67942;SHT31;54731;42.600;23.476;2023-08-06T09:04:44;21.85;64.61
67942;SHT31;54731;42.600;23.476;2023-08-06T09:07:10;21.88;65.95
67942;SHT31;54731;42.600;23.476;2023-08-06T09:09:39;21.98;64.77
67942;SHT31;54731;42.600;23.476;2023-08-06T09:12:15;21.90;61.51
67942;SHT31;54731;42.600;23.476;2023-08-06T09:14:41;22.00;62.19
67942;SHT31;54731;42.600;23.476;2023-08-06T09:17:06;22.09;63.45
67942;SHT31;54731;42.600;23.476;2023-08-06T09:19:32;22.05;62.61
67942;SHT31;54731;42.600;23.476;2023-08-06T09:21:58;22.17;63.68
67942;SHT31;54731;42.600;23.476;2023-08-06T09:24:23;22.26;63.01
67942;SHT31;54731;42.600;23.476;2023-08-06T09:26:48;22.26;62.58
67942;SHT31;54731;42.600;23.476;2023-08-06T09:29:14;22.39;61.56
67942;SHT31;54731;42.600;23.476;2023-08-06T09:31:41;22.54;61.92
67942;SHT31;54731;42.600;23.476;2023-08-06T09:34:25;22.65;60.87
67942;SHT31;54731;42.600;23.476;2023-08-06T09:36:53;22.73;60.81
67942;SHT31;54731;42.600;23.476;2023-08-06T09:39:20;22.81;60.63
67942;SHT31;54731;42.600;23.476;2023-08-06T09:41:46;22.87;58.80
67942;SHT31;54731;42.600;23.476;2023-08-06T09:44:21;22.88;59.23
67942;SHT31;54731;42.600;23.476;2023-08-06T09:46:50;22.95;60.06
67942;SHT31;54731;42.600;23.476;2023-08-06T09:49:18;23.05;58.90
67942;SHT31;54731;42.600;23.476;2023-08-06T09:51:44;23.07;60.29
67942;SHT31;54731;42.600;23.476;2023-08-06T09:54:13;23.26;61.54
67942;SHT31;54731;42.600;23.476;2023-08-06T09:56:40;23.38;58.58
67942;SHT31;54731;42.600;23.476;2023-08-06T09:59:05;23.45;58.84
67942;SHT31;54731;42.600;23.476;2023-08-06T10:01:32;23.56;59.88
67942;SHT31;54731;42.600;23.476;2023-08-06T10:03:58;23.59;56.70
67942;SHT31;54731;42.600;23.476;2023-08-06T10:06:24;23.73;57.80
67942;SHT31;54731;42.600;23.476;2023-08-06T10:08:49;23.72;56.32
67942;SHT31;54731;42.600;23.476;2023-08-06T10:11:17;23.92;57.05
67942;SHT31;54731;42.600;23.476;2023-08-06T10:13:42;23.89;53.90
67942;SHT31;54731;42.600;23.476;2023-08-06T10:16:08;23.87;55.43
67942;SHT31;54731;42.600;23.476;2023-08-06T10:18:37;23.95;53.52
67942;SHT31;54731;42.600;23.476;2023-08-06T10:21:07;23.92;53.74
67942;SHT31;54731;42.600;23.476;2023-08-06T10:23:34;23.89;53.93
67942;SHT31;54731;42.600;23.476;2023-08-06T10:25:59;23.89;54.47
67942;SHT31;54731;42.600;23.476;2023-08-06T10:28:34;23.86;54.48
67942;SHT31;54731;42.600;23.476;2023-08-06T10:30:59;23.85;53.72
67942;SHT31;54731;42.600;23.476;2023-08-06T10:33:40;23.80;53.55
67942;SHT31;54731;42.600;23.476;2023-08-06T10:36:08;23.92;54.44
67942;SHT31;54731;42.600;23.476;2023-08-06T10:38:33;23.89;54.12
67942;SHT31;54731;42.600;23.476;2023-08-06T10:41:02;23.93;54.26
67942;SHT31;54731;42.600;23.476;2023-08-06T10:43:35;23.85;54.80
67942;SHT31;54731;42.600;23.476;2023-08-06T10:46:25;23.86;53.99
67942;SHT31;54731;42.600;23.476;2023-08-06T10:48:51;23.83;54.02
67942;SHT31;54731;42.600;23.476;2023-08-06T10:51:16;23.75;54.48
67942;SHT31;54731;42.600;23.476;2023-08-06T10:53:44;23.72;54.71
67942;SHT31;54731;42.600;23.476;2023-08-06T10:56:17;23.73;53.57
67942;SHT31;54731;42.600;23.476;2023-08-06T10:58:43;23.68;53.77
67942;SHT31;54731;42.600;23.476;2023-08-06T11:01:09;23.63;54.25
67942;SHT31;54731;42.600;23.476;2023-08-06T11:03:35;23.55;54.64
67942;SHT31;54731;42.600;23.476;2023-08-06T11:06:01;23.55;53.29
67942;SHT31;54731;42.600;23.476;2023-08-06T11:08:27;23.49;54.48
67942;SHT31;54731;42.600;23.476;2023-08-06T11:10:53;23.52;53.85
67942;SHT31;54731;42.600;23.476;2023-08-06T11:13:18;23.51;55.04
67942;SHT31;54731;42.600;23.476;2023-08-06T11:15:44;23.44;54.94
67942;SHT31;54731;42.600;23.476;2023-08-06T11:18:10;23.37;54.67
67942;SHT31;54731;42.600;23.476;2023-08-06T11:20:36;23.45;55.73
67942;SHT31;54731;42.600;23.476;2023-08-06T11:23:01;23.51;56.34
67942;SHT31;54731;42.600;23.476;2023-08-06T11:25:27;23.62;56.74
67942;SHT31;54731;42.600;23.476;2023-08-06T11:27:52;23.86;56.03
67942;SHT31;54731;42.600;23.476;2023-08-06T11:30:18;24.27;55.39
67942;SHT31;54731;42.600;23.476;2023-08-06T11:32:47;24.51;54.32
67942;SHT31;54731;42.600;23.476;2023-08-06T11:35:13;24.61;53.79
67942;SHT31;54731;42.600;23.476;2023-08-06T11:37:39;24.74;53.43
67942;SHT31;54731;42.600;23.476;2023-08-06T11:40:08;24.74;53.94
67942;SHT31;54731;42.600;23.476;2023-08-06T11:42:35;24.71;52.76
67942;SHT31;54731;42.600;23.476;2023-08-06T11:45:02;24.75;52.76
67942;SHT31;54731;42.600;23.476;2023-08-06T11:47:27;24.84;49.43
67942;SHT31;54731;42.600;23.476;2023-08-06T11:49:52;25.07;48.74
67942;SHT31;54731;42.600;23.476;2023-08-06T11:52:22;25.07;46.85
67942;SHT31;54731;42.600;23.476;2023-08-06T11:55:08;25.19;47.53
67942;SHT31;54731;42.600;23.476;2023-08-06T11:57:34;25.05;46.43
67942;SHT31;54731;42.600;23.476;2023-08-06T12:00:07;25.18;47.50
67942;SHT31;54731;42.600;23.476;2023-08-06T12:02:34;25.22;48.51
67942;SHT31;54731;42.600;23.476;2023-08-06T12:07:40;25.25;48.61
67942;SHT31;54731;42.600;23.476;2023-08-06T12:10:06;25.08;49.25
67942;SHT31;54731;42.600;23.476;2023-08-06T12:12:32;25.01;48.80
67942;SHT31;54731;42.600;23.476;2023-08-06T12:14:57;25.12;48.27
67942;SHT31;54731;42.600;23.476;2023-08-06T12:17:24;25.05;49.60
67942;SHT31;54731;42.600;23.476;2023-08-06T12:19:49;24.99;49.08
67942;SHT31;54731;42.600;23.476;2023-08-06T12:22:15;25.08;48.69
67942;SHT31;54731;42.600;23.476;2023-08-06T12:24:41;25.05;49.71
67942;SHT31;54731;42.600;23.476;2023-08-06T12:27:07;25.16;49.52
67942;SHT31;54731;42.600;23.476;2023-08-06T12:29:32;25.19;50.07
67942;SHT31;54731;42.600;23.476;2023-08-06T12:31:58;25.14;49.72
67942;SHT31;54731;42.600;23.476;2023-08-06T12:34:23;25.21;49.54
67942;SHT31;54731;42.600;23.476;2023-08-06T12:36:48;25.29;48.50
67942;SHT31;54731;42.600;23.476;2023-08-06T12:39:14;25.41;48.30
67942;SHT31;54731;42.600;23.476;2023-08-06T12:41:39;25.52;48.61
67942;SHT31;54731;42.600;23.476;2023-08-06T12:44:04;25.59;47.96
67942;SHT31;54731;42.600;23.476;2023-08-06T12:46:30;25.61;48.71
67942;SHT31;54731;42.600;23.476;2023-08-06T12:48:56;25.63;48.15
67942;SHT31;54731;42.600;23.476;2023-08-06T12:51:21;25.67;47.98
67942;SHT31;54731;42.600;23.476;2023-08-06T12:53:46;25.63;49.12
67942;SHT31;54731;42.600;23.476;2023-08-06T12:56:12;25.73;48.75
67942;SHT31;54731;42.600;23.476;2023-08-06T12:58:37;25.80;49.40
67942;SHT31;54731;42.600;23.476;2023-08-06T13:01:02;25.73;49.49
67942;SHT31;54731;42.600;23.476;2023-08-06T13:03:28;25.85;49.94
67942;SHT31;54731;42.600;23.476;2023-08-06T13:05:53;25.77;48.60
67942;SHT31;54731;42.600;23.476;2023-08-06T13:08:18;25.87;49.40
67942;SHT31;54731;42.600;23.476;2023-08-06T13:10:43;25.94;48.89
67942;SHT31;54731;42.600;23.476;2023-08-06T13:13:09;25.98;49.18
67942;SHT31;54731;42.600;23.476;2023-08-06T13:15:34;26.12;49.75
67942;SHT31;54731;42.600;23.476;2023-08-06T13:17:59;26.07;50.81
67942;SHT31;54731;42.600;23.476;2023-08-06T13:20:25;26.18;47.77
67942;SHT31;54731;42.600;23.476;2023-08-06T13:22:50;26.18;48.51
67942;SHT31;54731;42.600;23.476;2023-08-06T13:25:16;26.33;49.00
67942;SHT31;54731;42.600;23.476;2023-08-06T13:27:41;26.44;49.40
67942;SHT31;54731;42.600;23.476;2023-08-06T13:30:07;26.45;49.18
67942;SHT31;54731;42.600;23.476;2023-08-06T13:32:32;26.44;49.03
67942;SHT31;54731;42.600;23.476;2023-08-06T13:34:58;26.62;47.49
67942;SHT31;54731;42.600;23.476;2023-08-06T13:37:23;26.71;45.69
67942;SHT31;54731;42.600;23.476;2023-08-06T13:39:48;26.82;46.41
67942;SHT31;54731;42.600;23.476;2023-08-06T13:42:13;26.90;47.16
67942;SHT31;54731;42.600;23.476;2023-08-06T13:44:39;26.82;45.52
67942;SHT31;54731;42.600;23.476;2023-08-06T13:47:04;26.71;46.21
67942;SHT31;54731;42.600;23.476;2023-08-06T13:49:29;26.70;46.31
67942;SHT31;54731;42.600;23.476;2023-08-06T13:51:55;26.77;46.88
67942;SHT31;54731;42.600;23.476;2023-08-06T13:54:20;26.81;46.86
67942;SHT31;54731;42.600;23.476;2023-08-06T13:56:45;26.85;46.18
67942;SHT31;54731;42.600;23.476;2023-08-06T13:59:11;26.71;46.41
67942;SHT31;54731;42.600;23.476;2023-08-06T14:01:36;26.88;45.81
67942;SHT31;54731;42.600;23.476;2023-08-06T14:04:01;26.81;45.94
67942;SHT31;54731;42.600;23.476;2023-08-06T14:06:26;26.91;45.34
67942;SHT31;54731;42.600;23.476;2023-08-06T14:08:52;26.90;45.86
67942;SHT31;54731;42.600;23.476;2023-08-06T14:11:17;26.90;45.99
67942;SHT31;54731;42.600;23.476;2023-08-06T14:13:42;26.94;46.46
67942;SHT31;54731;42.600;23.476;2023-08-06T14:16:08;26.87;46.70
67942;SHT31;54731;42.600;23.476;2023-08-06T14:18:33;26.96;46.29
67942;SHT31;54731;42.600;23.476;2023-08-06T14:20:58;26.87;45.79
67942;SHT31;54731;42.600;23.476;2023-08-06T14:23:23;27.02;44.98
67942;SHT31;54731;42.600;23.476;2023-08-06T14:25:52;27.13;45.17
67942;SHT31;54731;42.600;23.476;2023-08-06T14:28:17;27.25;44.40
67942;SHT31;54731;42.600;23.476;2023-08-06T14:30:42;27.13;44.76
67942;SHT31;54731;42.600;23.476;2023-08-06T14:33:07;27.45;45.53
67942;SHT31;54731;42.600;23.476;2023-08-06T14:35:33;27.64;45.35
67942;SHT31;54731;42.600;23.476;2023-08-06T14:37:58;27.82;44.04
67942;SHT31;54731;42.600;23.476;2023-08-06T14:40:23;28.04;42.73
67942;SHT31;54731;42.600;23.476;2023-08-06T14:42:49;28.33;41.15
67942;SHT31;54731;42.600;23.476;2023-08-06T14:45:14;28.68;42.73
67942;SHT31;54731;42.600;23.476;2023-08-06T14:47:39;28.78;42.20
67942;SHT31;54731;42.600;23.476;2023-08-06T14:50:05;29.03;42.19
67942;SHT31;54731;42.600;23.476;2023-08-06T14:52:30;28.98;40.68
67942;SHT31;54731;42.600;23.476;2023-08-06T14:54:55;28.98;41.34
67942;SHT31;54731;42.600;23.476;2023-08-06T14:57:21;29.06;41.55
67942;SHT31;54731;42.600;23.476;2023-08-06T14:59:46;29.22;40.92
67942;SHT31;54731;42.600;23.476;2023-08-06T15:02:12;29.39;40.99
67942;SHT31;54731;42.600;23.476;2023-08-06T15:04:37;29.39;39.84
67942;SHT31;54731;42.600;23.476;2023-08-06T15:07:02;29.40;39.34
67942;SHT31;54731;42.600;23.476;2023-08-06T15:09:28;29.50;40.83
67942;SHT31;54731;42.600;23.476;2023-08-06T15:11:53;29.67;40.19
67942;SHT31;54731;42.600;23.476;2023-08-06T15:14:18;29.87;40.32
67942;SHT31;54731;42.600;23.476;2023-08-06T15:16:46;29.96;39.79
67942;SHT31;54731;42.600;23.476;2023-08-06T15:19:11;29.91;39.29
67942;SHT31;54731;42.600;23.476;2023-08-06T15:21:37;29.83;39.60
67942;SHT31;54731;42.600;23.476;2023-08-06T15:24:02;29.90;39.92
67942;SHT31;54731;42.600;23.476;2023-08-06T15:26:27;29.91;39.54
67942;SHT31;54731;42.600;23.476;2023-08-06T15:28:53;29.93;39.86
67942;SHT31;54731;42.600;23.476;2023-08-06T15:31:21;29.84;39.63
67942;SHT31;54731;42.600;23.476;2023-08-06T15:33:46;30.01;40.46
67942;SHT31;54731;42.600;23.476;2023-08-06T15:36:11;30.08;41.84
67942;SHT31;54731;42.600;23.476;2023-08-06T15:38:37;30.17;42.17
67942;SHT31;54731;42.600;23.476;2023-08-06T15:41:02;30.34;42.37
67942;SHT31;54731;42.600;23.476;2023-08-06T15:43:27;30.48;41.86
67942;SHT31;54731;42.600;23.476;2023-08-06T15:45:53;30.27;40.31
67942;SHT31;54731;42.600;23.476;2023-08-06T15:48:18;30.28;40.63
67942;SHT31;54731;42.600;23.476;2023-08-06T15:50:43;30.21;41.16
67942;SHT31;54731;42.600;23.476;2023-08-06T15:53:08;30.14;42.56
67942;SHT31;54731;42.600;23.476;2023-08-06T15:55:34;29.77;43.09
67942;SHT31;54731;42.600;23.476;2023-08-06T15:57:59;29.23;42.40
67942;SHT31;54731;42.600;23.476;2023-08-06T16:00:24;29.19;43.06
67942;SHT31;54731;42.600;23.476;2023-08-06T16:02:50;29.18;42.85
67942;SHT31;54731;42.600;23.476;2023-08-06T16:05:15;29.23;43.62
67942;SHT31;54731;42.600;23.476;2023-08-06T16:07:40;29.10;43.88
67942;SHT31;54731;42.600;23.476;2023-08-06T16:10:06;29.09;43.69
67942;SHT31;54731;42.600;23.476;2023-08-06T16:12:31;28.88;43.41
67942;SHT31;54731;42.600;23.476;2023-08-06T16:14:56;28.51;44.39
67942;SHT31;54731;42.600;23.476;2023-08-06T16:17:22;28.41;45.17
67942;SHT31;54731;42.600;23.476;2023-08-06T16:19:47;28.29;46.45
67942;SHT31;54731;42.600;23.476;2023-08-06T16:22:12;28.11;47.06
67942;SHT31;54731;42.600;23.476;2023-08-06T16:24:38;27.86;46.82
67942;SHT31;54731;42.600;23.476;2023-08-06T16:27:03;27.63;47.20
67942;SHT31;54731;42.600;23.476;2023-08-06T16:29:29;27.43;48.14
67942;SHT31;54731;42.600;23.476;2023-08-06T16:31:54;27.05;48.49
67942;SHT31;54731;42.600;23.476;2023-08-06T16:34:19;26.84;49.14
67942;SHT31;54731;42.600;23.476;2023-08-06T16:36:45;26.81;49.08